createdAt,value
2022-08-25T03:52:33.859Z,1009.39
2022-08-25T03:53:34.785Z,1009.32
2022-08-25T03:54:34.775Z,1009.30
2022-08-25T03:55:34.767Z,1009.34
2022-08-25T03:56:34.758Z,1009.35
2022-08-25T03:57:34.742Z,1009.29
2022-08-25T03:58:34.764Z,1009.28
2022-08-25T03:59:34.713Z,1009.33
2022-08-25T04:00:34.702Z,1009.28
2022-08-25T04:01:34.789Z,1009.23
2022-08-25T04:02:34.759Z,1009.17
2022-08-25T04:03:34.673Z,1009.13
2022-08-25T04:04:34.692Z,1009.14
2022-08-25T04:05:34.652Z,1009.15
2022-08-25T04:06:34.652Z,1009.15
2022-08-25T04:07:34.630Z,1009.07
2022-08-25T04:08:34.609Z,1009.07
2022-08-25T04:09:36.912Z,1009.09
2022-08-25T04:10:34.597Z,1009.06
2022-08-25T04:11:34.595Z,1009.06
2022-08-25T04:12:34.599Z,1009.10
2022-08-25T04:13:34.565Z,1009.09
2022-08-25T04:14:34.553Z,1009.10
2022-08-25T04:15:34.532Z,1009.10
2022-08-25T04:16:34.589Z,1009.08
2022-08-25T04:17:34.519Z,1009.13
2022-08-25T04:18:34.514Z,1009.10
2022-08-25T04:19:34.498Z,1009.10
2022-08-25T04:20:34.495Z,1009.08
2022-08-25T04:21:34.468Z,1009.10
2022-08-25T04:22:34.504Z,1009.07
2022-08-25T04:23:34.465Z,1009.11
2022-08-25T04:24:34.467Z,1009.13
2022-08-25T04:25:34.451Z,1009.09
2022-08-25T04:26:34.451Z,1009.08
2022-08-25T04:27:34.409Z,1009.09
2022-08-25T04:28:34.398Z,1009.08
2022-08-25T04:29:34.386Z,1009.11
2022-08-25T04:30:34.379Z,1009.08
2022-08-25T04:31:34.498Z,1009.10
2022-08-25T04:32:34.568Z,1009.09
2022-08-25T04:33:34.338Z,1009.10
2022-08-25T04:34:34.331Z,1009.09
2022-08-25T04:35:34.322Z,1009.11
2022-08-25T04:36:34.303Z,1009.09
2022-08-25T04:37:34.298Z,1009.06
2022-08-25T04:38:34.294Z,1009.04
2022-08-25T04:39:34.279Z,1009.03
2022-08-25T04:40:34.320Z,1008.99
2022-08-25T04:41:34.269Z,1009.01
2022-08-25T04:42:34.233Z,1009.01
2022-08-25T04:43:34.231Z,1009.00
2022-08-25T04:44:34.220Z,1008.99
2022-08-25T04:45:34.235Z,1008.98
2022-08-25T04:46:34.206Z,1009.02
2022-08-25T04:47:34.214Z,1009.02
2022-08-25T04:48:41.878Z,1009.04
2022-08-25T04:49:34.172Z,1009.02
2022-08-25T04:50:34.153Z,1009.08
2022-08-25T04:51:34.139Z,1009.07
2022-08-25T04:52:34.134Z,1009.09
2022-08-25T04:53:34.186Z,1009.07
2022-08-25T04:54:36.045Z,1009.04
2022-08-25T04:55:34.121Z,1009.07
2022-08-25T04:56:34.075Z,1009.07
2022-08-25T04:57:34.073Z,1009.08
2022-08-25T04:58:34.064Z,1009.13
2022-08-25T04:59:34.058Z,1009.11
2022-08-25T05:00:34.097Z,1009.16
2022-08-25T05:01:34.018Z,1009.16
2022-08-25T05:02:34.011Z,1009.12
2022-08-25T05:03:34.016Z,1009.12
2022-08-25T05:04:34.357Z,1009.16
2022-08-25T05:05:33.977Z,1009.13
2022-08-25T05:06:33.962Z,1009.12
2022-08-25T05:07:33.949Z,1009.09
2022-08-25T05:08:33.973Z,1009.12
2022-08-25T05:09:33.937Z,1009.09
2022-08-25T05:10:33.949Z,1009.06
2022-08-25T05:11:33.938Z,1009.05
2022-08-25T05:12:33.934Z,1009.06
2022-08-25T05:13:33.893Z,1009.02
2022-08-25T05:14:33.897Z,1009.08
2022-08-25T05:15:33.882Z,1009.05
2022-08-25T05:16:34.070Z,1009.06
2022-08-25T05:17:33.838Z,1009.05
2022-08-25T05:18:33.835Z,1009.07
2022-08-25T05:19:33.840Z,1009.09
2022-08-25T05:20:33.812Z,1009.11
2022-08-25T05:21:33.818Z,1009.11
2022-08-25T05:22:34.282Z,1009.15
2022-08-25T05:23:33.787Z,1009.10
2022-08-25T05:24:33.813Z,1009.15
2022-08-25T05:25:33.751Z,1009.09
2022-08-25T05:26:33.950Z,1009.09
2022-08-25T05:27:33.739Z,1009.05
2022-08-25T05:28:33.803Z,1009.04
2022-08-25T05:29:33.725Z,1008.99
2022-08-25T05:30:33.697Z,1009.03
2022-08-25T05:31:34.916Z,1008.98
2022-08-25T05:32:33.679Z,1008.98
2022-08-25T05:33:33.659Z,1008.96
2022-08-25T05:34:33.868Z,1008.96
2022-08-25T05:35:33.639Z,1008.95
2022-08-25T05:36:33.632Z,1008.98
2022-08-25T05:37:33.613Z,1008.93
2022-08-25T05:38:40.194Z,1008.90
2022-08-25T05:39:33.609Z,1008.94
2022-08-25T05:40:33.600Z,1008.88
2022-08-25T05:41:33.574Z,1008.92
2022-08-25T05:42:33.576Z,1008.89
2022-08-25T05:43:33.563Z,1008.89
2022-08-25T05:44:33.546Z,1008.94
2022-08-25T05:45:33.562Z,1008.92
2022-08-25T05:46:33.525Z,1008.93
2022-08-25T05:47:33.519Z,1008.95
2022-08-25T05:48:33.521Z,1008.94
2022-08-25T05:49:33.508Z,1008.91
2022-08-25T05:50:33.474Z,1008.86
2022-08-25T05:51:33.476Z,1008.87
2022-08-25T05:52:33.502Z,1008.90
2022-08-25T05:53:34.067Z,1008.83
2022-08-25T05:54:33.468Z,1008.85
2022-08-25T05:55:33.465Z,1008.87
2022-08-25T05:56:33.421Z,1008.80
2022-08-25T05:57:33.400Z,1008.81
2022-08-25T05:58:33.414Z,1008.81
2022-08-25T05:59:33.384Z,1008.80
2022-08-25T06:00:33.363Z,1008.77
2022-08-25T06:01:33.398Z,1008.81
2022-08-25T06:02:33.361Z,1008.79
2022-08-25T06:03:33.446Z,1008.79
2022-08-25T06:04:33.881Z,1008.78
2022-08-25T06:05:33.315Z,1008.82
2022-08-25T06:06:33.330Z,1008.83
2022-08-25T06:07:33.561Z,1008.81
2022-08-25T06:08:33.277Z,1008.79
2022-08-25T06:09:33.256Z,1008.77
2022-08-25T06:10:33.256Z,1008.79
2022-08-25T06:11:33.282Z,1008.76
2022-08-25T06:12:33.237Z,1008.76
2022-08-25T06:13:33.226Z,1008.73
2022-08-25T06:14:33.226Z,1008.77
2022-08-25T06:15:33.204Z,1008.75
2022-08-25T06:16:33.276Z,1008.79
2022-08-25T06:17:33.192Z,1008.74
2022-08-25T06:18:33.198Z,1008.79
2022-08-25T06:19:33.159Z,1008.79
2022-08-25T06:20:33.133Z,1008.82
2022-08-25T06:21:33.127Z,1008.86
2022-08-25T06:22:33.145Z,1008.80
2022-08-25T06:23:33.099Z,1008.76
2022-08-25T06:24:33.110Z,1008.76
2022-08-25T06:25:33.079Z,1008.78
2022-08-25T06:26:33.119Z,1008.80
2022-08-25T06:27:33.080Z,1008.78
2022-08-25T06:28:33.056Z,1008.77
2022-08-25T06:29:33.053Z,1008.78
2022-08-25T06:30:33.020Z,1008.83
2022-08-25T06:31:33.109Z,1008.79
2022-08-25T06:32:33.017Z,1008.78
2022-08-25T06:33:32.985Z,1008.82
2022-08-25T06:34:33.881Z,1008.87
2022-08-25T06:35:33.942Z,1008.90
2022-08-25T06:36:32.963Z,1008.86
2022-08-25T06:37:32.940Z,1008.90
2022-08-25T06:38:39.844Z,1008.90
2022-08-25T06:39:32.939Z,1008.91
2022-08-25T06:40:33.021Z,1008.80
2022-08-25T06:41:36.636Z,1008.87
2022-08-25T06:42:32.920Z,1008.84
2022-08-25T06:43:32.922Z,1008.88
2022-08-25T06:44:32.880Z,1008.88
2022-08-25T06:45:32.886Z,1008.82
2022-08-25T06:46:36.071Z,1008.85
2022-08-25T06:47:32.838Z,1008.88
2022-08-25T06:48:32.822Z,1008.88
2022-08-25T06:49:35.996Z,1008.90
2022-08-25T06:50:32.817Z,1008.93
2022-08-25T06:51:32.787Z,1008.89
2022-08-25T06:52:32.813Z,1008.91
2022-08-25T06:53:32.793Z,1008.87
2022-08-25T06:54:32.763Z,1008.94
2022-08-25T06:55:32.756Z,1008.91
2022-08-25T06:56:32.743Z,1008.94
2022-08-25T06:57:32.787Z,1008.94
2022-08-25T06:58:32.716Z,1008.95
2022-08-25T06:59:32.718Z,1008.90
2022-08-25T07:00:32.804Z,1008.94
2022-08-25T07:01:32.729Z,1008.92
2022-08-25T07:02:32.708Z,1008.95
2022-08-25T07:03:32.677Z,1008.98
2022-08-25T07:04:32.648Z,1008.96
2022-08-25T07:05:42.815Z,1008.99
2022-08-25T07:06:32.635Z,1008.94
2022-08-25T07:07:43.757Z,1008.94
2022-08-25T07:08:32.624Z,1008.97
2022-08-25T07:09:35.319Z,1008.94
2022-08-25T07:10:32.591Z,1008.86
2022-08-25T07:11:32.578Z,1008.85
2022-08-25T07:12:32.586Z,1008.86
2022-08-25T07:13:32.565Z,1008.84
2022-08-25T07:14:32.548Z,1008.82
2022-08-25T07:15:32.527Z,1008.86
2022-08-25T07:16:32.553Z,1008.85
2022-08-25T07:17:32.531Z,1008.85
2022-08-25T07:18:32.505Z,1008.87
2022-08-25T07:19:33.451Z,1008.86
2022-08-25T07:20:32.466Z,1008.84
2022-08-25T07:21:33.702Z,1008.81
2022-08-25T07:22:32.458Z,1008.82
2022-08-25T07:23:32.439Z,1008.76
2022-08-25T07:24:32.441Z,1008.76
2022-08-25T07:25:32.423Z,1008.78
2022-08-25T07:26:39.575Z,1008.84
2022-08-25T07:27:32.393Z,1008.80
2022-08-25T07:28:32.446Z,1008.82
2022-08-25T07:29:33.273Z,1008.81
2022-08-25T07:30:32.359Z,1008.82
2022-08-25T07:31:32.386Z,1008.81
2022-08-25T07:32:32.346Z,1008.80
2022-08-25T07:33:32.319Z,1008.83
2022-08-25T07:34:32.343Z,1008.83
2022-08-25T07:35:37.587Z,1008.84
2022-08-25T07:36:32.307Z,1008.82
2022-08-25T07:37:48.038Z,1008.85
2022-08-25T07:38:32.282Z,1008.83
2022-08-25T07:39:32.274Z,1008.81
2022-08-25T07:40:32.357Z,1008.86
2022-08-25T07:41:32.239Z,1008.80
2022-08-25T07:42:32.234Z,1008.81
2022-08-25T07:43:32.224Z,1008.79
2022-08-25T07:44:32.230Z,1008.78
2022-08-25T07:45:32.193Z,1008.74
2022-08-25T07:46:32.241Z,1008.76
2022-08-25T07:47:32.174Z,1008.76
2022-08-25T07:48:32.152Z,1008.76
2022-08-25T07:49:36.165Z,1008.73
2022-08-25T07:50:33.053Z,1008.70
2022-08-25T07:51:32.149Z,1008.75
2022-08-25T07:52:32.117Z,1008.76
2022-08-25T07:53:32.107Z,1008.77
2022-08-25T07:54:34.163Z,1008.78
2022-08-25T07:55:32.088Z,1008.78
2022-08-25T07:56:32.065Z,1008.79
2022-08-25T07:57:32.067Z,1008.77
2022-08-25T07:58:32.050Z,1008.78
2022-08-25T07:59:40.090Z,1008.69
2022-08-25T08:00:32.039Z,1008.77
2022-08-25T08:01:32.065Z,1008.72
2022-08-25T08:02:32.034Z,1008.77
2022-08-25T08:03:45.109Z,1008.77
2022-08-25T08:04:32.029Z,1008.76
2022-08-25T08:05:31.977Z,1008.78
2022-08-25T08:06:31.978Z,1008.77
2022-08-25T08:07:42.020Z,1008.82
2022-08-25T08:08:32.582Z,1008.80
2022-08-25T08:09:31.934Z,1008.82
2022-08-25T08:11:32.024Z,1008.77
2022-08-25T08:12:31.916Z,1008.76
2022-08-25T08:13:31.902Z,1008.77
2022-08-25T08:14:31.895Z,1008.76
2022-08-25T08:15:31.865Z,1008.73
2022-08-25T08:16:31.898Z,1008.76
2022-08-25T08:17:31.846Z,1008.73
2022-08-25T08:18:31.827Z,1008.72
2022-08-25T08:19:31.813Z,1008.67
2022-08-25T08:20:31.844Z,1008.69
2022-08-25T08:21:31.814Z,1008.64
2022-08-25T08:22:31.792Z,1008.68
2022-08-25T08:23:31.768Z,1008.64
2022-08-25T08:24:44.864Z,1008.67
2022-08-25T08:25:31.783Z,1008.66
2022-08-25T08:26:55.218Z,1008.66
2022-08-25T08:27:31.795Z,1008.70
2022-08-25T08:28:31.737Z,1008.67
2022-08-25T08:29:31.706Z,1008.60
2022-08-25T08:30:31.963Z,1008.50
2022-08-25T08:31:31.751Z,1008.50
2022-08-25T08:32:46.422Z,1008.46
2022-08-25T08:33:31.680Z,1008.38
2022-08-25T08:34:31.659Z,1008.39
2022-08-25T08:35:31.655Z,1008.42
2022-08-25T08:36:31.663Z,1008.38
2022-08-25T08:37:31.628Z,1008.39
2022-08-25T08:38:31.613Z,1008.33
2022-08-25T08:39:31.600Z,1008.32
2022-08-25T08:40:31.682Z,1008.31
2022-08-25T08:41:33.855Z,1008.29
2022-08-25T08:42:31.562Z,1008.34
2022-08-25T08:43:33.444Z,1008.27
2022-08-25T08:44:31.532Z,1008.27
2022-08-25T08:45:31.521Z,1008.28
2022-08-25T08:46:31.571Z,1008.21
2022-08-25T08:47:31.504Z,1008.20
2022-08-25T08:48:31.650Z,1008.24
2022-08-25T08:49:31.479Z,1008.21
2022-08-25T08:50:33.171Z,1008.19
2022-08-25T08:51:33.062Z,1008.19
2022-08-25T08:52:31.461Z,1008.18
2022-08-25T08:53:34.245Z,1008.18
2022-08-25T08:54:31.463Z,1008.18
2022-08-25T08:55:31.426Z,1008.21
2022-08-25T08:56:31.447Z,1008.17
2022-08-25T08:57:31.425Z,1008.19
2022-08-25T08:58:31.385Z,1008.17
2022-08-25T08:59:31.410Z,1008.23
2022-08-25T09:00:31.396Z,1008.17
2022-08-25T09:01:31.479Z,1008.14
2022-08-25T09:02:38.926Z,1008.18
2022-08-25T09:03:31.439Z,1008.13
2022-08-25T09:04:31.378Z,1008.11
2022-08-25T09:05:31.323Z,1008.10
2022-08-25T09:06:31.342Z,1008.07
2022-08-25T09:07:31.321Z,1008.11
2022-08-25T09:08:31.336Z,1008.05
2022-08-25T09:09:31.331Z,1008.04
2022-08-25T09:10:31.268Z,1008.03
2022-08-25T09:11:31.257Z,1008.03
2022-08-25T09:12:31.258Z,1007.99
2022-08-25T09:13:31.964Z,1008.02
2022-08-25T09:14:31.277Z,1007.96
2022-08-25T09:15:31.382Z,1007.98
2022-08-25T09:16:34.114Z,1007.94
2022-08-25T09:17:31.207Z,1007.94
2022-08-25T09:18:31.168Z,1007.96
2022-08-25T09:19:31.189Z,1007.92
2022-08-25T09:20:31.179Z,1007.89
2022-08-25T09:21:31.138Z,1007.87
2022-08-25T09:22:35.831Z,1007.89
2022-08-25T09:23:31.131Z,1007.82
2022-08-25T09:24:31.121Z,1007.84
2022-08-25T09:26:31.117Z,1007.84
2022-08-25T09:27:31.094Z,1007.82
2022-08-25T09:28:31.096Z,1007.79
2022-08-25T09:29:31.274Z,1007.78
2022-08-25T09:30:31.064Z,1007.71
2022-08-25T09:31:31.153Z,1007.69
2022-08-25T09:32:31.535Z,1007.68
2022-08-25T09:33:31.074Z,1007.71
2022-08-25T09:34:31.013Z,1007.66
2022-08-25T09:35:31.023Z,1007.64
2022-08-25T09:36:35.483Z,1007.60
2022-08-25T09:37:31.030Z,1007.63
2022-08-25T09:38:30.974Z,1007.64
2022-08-25T09:39:30.966Z,1007.57
2022-08-25T09:40:31.064Z,1007.56
2022-08-25T09:41:30.943Z,1007.57
2022-08-25T09:42:30.995Z,1007.49
2022-08-25T09:43:30.932Z,1007.53
2022-08-25T09:44:30.947Z,1007.47
2022-08-25T09:45:30.910Z,1007.46
2022-08-25T09:46:30.944Z,1007.49
2022-08-25T09:47:30.887Z,1007.46
2022-08-25T09:48:30.979Z,1007.45
2022-08-25T09:49:30.893Z,1007.44
2022-08-25T09:50:30.861Z,1007.42
2022-08-25T09:51:38.316Z,1007.39
2022-08-25T09:52:30.882Z,1007.43
2022-08-25T09:53:33.697Z,1007.46
2022-08-25T09:54:37.743Z,1007.33
2022-08-25T09:55:32.660Z,1007.43
2022-08-25T09:56:30.854Z,1007.39
2022-08-25T09:57:30.790Z,1007.36
2022-08-25T09:58:30.812Z,1007.37
2022-08-25T09:59:35.012Z,1007.35
2022-08-25T10:00:30.828Z,1007.29
2022-08-25T10:01:34.756Z,1007.38
2022-08-25T10:02:30.763Z,1007.28
2022-08-25T10:03:30.817Z,1007.31
2022-08-25T10:04:30.788Z,1007.26
2022-08-25T10:05:30.793Z,1007.32
2022-08-25T10:06:30.724Z,1007.25
2022-08-25T10:07:30.700Z,1007.27
2022-08-25T10:08:30.739Z,1007.19
2022-08-25T10:09:30.681Z,1007.16
2022-08-25T10:10:32.457Z,1007.14
2022-08-25T10:11:30.696Z,1007.16
2022-08-25T10:12:30.648Z,1007.14
2022-08-25T10:13:30.647Z,1007.11
2022-08-25T10:14:30.664Z,1007.15
2022-08-25T10:15:30.875Z,1007.21
2022-08-25T10:16:35.708Z,1007.18
2022-08-25T10:17:30.631Z,1007.16
2022-08-25T10:18:30.610Z,1007.21
2022-08-25T10:19:30.646Z,1007.20
2022-08-25T10:20:33.154Z,1007.14
2022-08-25T10:21:30.599Z,1007.14
2022-08-25T10:22:31.498Z,1007.08
2022-08-25T10:23:30.666Z,1007.09
2022-08-25T10:24:30.591Z,1007.08
2022-08-25T10:25:30.561Z,1007.05
2022-08-25T10:26:34.787Z,1007.06
2022-08-25T10:27:30.561Z,1007.04
2022-08-25T10:28:30.536Z,1007.04
2022-08-25T10:29:30.519Z,1007.03
2022-08-25T10:30:30.531Z,1007.02
2022-08-25T10:31:32.979Z,1007.01
2022-08-25T10:32:30.483Z,1007.05
2022-08-25T10:33:30.478Z,1007.01
2022-08-25T10:34:30.525Z,1007.00
2022-08-25T10:35:30.508Z,1007.00
2022-08-25T10:36:30.448Z,1007.04
2022-08-25T10:37:32.600Z,1007.03
2022-08-25T10:38:35.235Z,1007.04
2022-08-25T10:39:34.585Z,1006.98
2022-08-25T10:40:30.467Z,1006.92
2022-08-25T10:41:30.437Z,1006.89
2022-08-25T10:42:30.398Z,1006.91
2022-08-25T10:43:30.400Z,1006.95
2022-08-25T10:44:30.382Z,1006.95
2022-08-25T10:45:30.402Z,1006.92
2022-08-25T10:46:31.316Z,1006.85
2022-08-25T10:47:30.431Z,1006.84
2022-08-25T10:48:30.341Z,1006.84
2022-08-25T10:49:30.399Z,1006.84
2022-08-25T10:50:30.356Z,1006.81
2022-08-25T10:51:30.333Z,1006.77
2022-08-25T10:52:30.315Z,1006.78
2022-08-25T10:53:30.325Z,1006.80
2022-08-25T10:54:30.348Z,1006.74
2022-08-25T10:55:30.315Z,1006.71
2022-08-25T10:56:30.332Z,1006.67
2022-08-25T10:57:30.305Z,1006.68
2022-08-25T10:58:36.767Z,1006.66
2022-08-25T10:59:30.298Z,1006.71
2022-08-25T11:00:31.739Z,1006.63
2022-08-25T11:01:34.735Z,1006.63
2022-08-25T11:02:30.246Z,1006.64
2022-08-25T11:03:30.257Z,1006.64
2022-08-25T11:04:30.216Z,1006.62
2022-08-25T11:05:30.362Z,1006.55
2022-08-25T11:06:30.231Z,1006.54
2022-08-25T11:07:30.186Z,1006.57
2022-08-25T11:08:30.208Z,1006.61
2022-08-25T11:09:31.050Z,1006.58
2022-08-25T11:10:30.161Z,1006.56
2022-08-25T11:11:30.207Z,1006.55
2022-08-25T11:12:30.179Z,1006.48
2022-08-25T11:13:30.168Z,1006.50
2022-08-25T11:14:34.328Z,1006.52
2022-08-25T11:15:30.152Z,1006.48
2022-08-25T11:16:31.147Z,1006.51
2022-08-25T11:17:30.127Z,1006.43
2022-08-25T11:18:30.131Z,1006.47
2022-08-25T11:19:30.104Z,1006.51
2022-08-25T11:20:30.094Z,1006.46
2022-08-25T11:21:30.851Z,1006.43
2022-08-25T11:22:30.096Z,1006.41
2022-08-25T11:23:30.079Z,1006.44
2022-08-25T11:24:30.074Z,1006.49
2022-08-25T11:25:30.058Z,1006.44
2022-08-25T11:26:32.864Z,1006.40
2022-08-25T11:27:30.309Z,1006.41
2022-08-25T11:28:30.023Z,1006.38
2022-08-25T11:29:30.035Z,1006.37
2022-08-25T11:30:30.081Z,1006.34
2022-08-25T11:31:30.022Z,1006.40
2022-08-25T11:32:30.015Z,1006.40
2022-08-25T11:33:30.552Z,1006.41
2022-08-25T11:34:30.006Z,1006.42
2022-08-25T11:35:31.163Z,1006.42
2022-08-25T11:36:30.050Z,1006.39
2022-08-25T11:37:30.005Z,1006.40
2022-08-25T11:38:29.952Z,1006.40
2022-08-25T11:39:33.053Z,1006.42
2022-08-25T11:40:30.130Z,1006.46
2022-08-25T11:41:29.927Z,1006.43
2022-08-25T11:42:29.924Z,1006.40
2022-08-25T11:43:29.913Z,1006.41
2022-08-25T11:44:29.926Z,1006.36
2022-08-25T11:45:29.930Z,1006.37
2022-08-25T11:46:29.968Z,1006.28
2022-08-25T11:47:29.899Z,1006.27
2022-08-25T11:48:29.907Z,1006.25
2022-08-25T11:49:29.878Z,1006.26
2022-08-25T11:50:30.617Z,1006.23
2022-08-25T11:51:30.846Z,1006.24
2022-08-25T11:52:30.717Z,1006.21
2022-08-25T11:53:30.337Z,1006.21
2022-08-25T11:54:29.856Z,1006.30
2022-08-25T11:55:29.835Z,1006.25
2022-08-25T11:56:30.776Z,1006.20
2022-08-25T11:57:29.819Z,1006.19
2022-08-25T11:58:30.581Z,1006.21
2022-08-25T11:59:29.821Z,1006.20
2022-08-25T12:00:29.808Z,1006.14
2022-08-25T12:01:29.782Z,1006.16
2022-08-25T12:02:29.786Z,1006.15
2022-08-25T12:03:29.800Z,1006.11
2022-08-25T12:04:29.901Z,1006.08
2022-08-25T12:05:29.865Z,1006.11
2022-08-25T12:06:29.759Z,1006.10
2022-08-25T12:07:29.805Z,1006.00
2022-08-25T12:08:29.786Z,1006.03
2022-08-25T12:09:30.317Z,1006.06
2022-08-25T12:10:29.771Z,1006.12
2022-08-25T12:11:29.729Z,1006.04
2022-08-25T12:12:29.708Z,1006.00
2022-08-25T12:13:29.710Z,1006.00
2022-08-25T12:14:29.724Z,1005.97
2022-08-25T12:15:29.705Z,1005.92
2022-08-25T12:16:29.722Z,1005.90
2022-08-25T12:17:29.676Z,1005.89
2022-08-25T12:18:29.716Z,1005.81
2022-08-25T12:19:29.671Z,1005.79
2022-08-25T12:20:29.658Z,1005.83
2022-08-25T12:21:29.655Z,1005.80
2022-08-25T12:22:29.642Z,1005.77
2022-08-25T12:23:29.631Z,1005.78
2022-08-25T12:24:29.631Z,1005.76
2022-08-25T12:25:29.613Z,1005.72
2022-08-25T12:26:29.639Z,1005.69
2022-08-25T12:27:33.531Z,1005.69
2022-08-25T12:28:29.601Z,1005.73
2022-08-25T12:29:29.592Z,1005.69
2022-08-25T12:30:29.645Z,1005.65
2022-08-25T12:31:29.605Z,1005.63
2022-08-25T12:32:29.568Z,1005.63
2022-08-25T12:33:29.572Z,1005.60
2022-08-25T12:34:29.567Z,1005.54
2022-08-25T12:35:29.907Z,1005.52
2022-08-25T12:36:29.550Z,1005.56
2022-08-25T12:37:29.531Z,1005.57
2022-08-25T12:38:39.881Z,1005.57
2022-08-25T12:39:29.534Z,1005.59
2022-08-25T12:40:29.563Z,1005.63
2022-08-25T12:41:31.020Z,1005.61
2022-08-25T12:42:29.568Z,1005.61
2022-08-25T12:43:33.263Z,1005.63
2022-08-25T12:44:29.498Z,1005.59
2022-08-25T12:45:29.547Z,1005.61
2022-08-25T12:46:29.576Z,1005.55
2022-08-25T12:47:29.470Z,1005.58
2022-08-25T12:48:29.459Z,1005.55
2022-08-25T12:49:29.465Z,1005.57
2022-08-25T12:50:29.455Z,1005.56
2022-08-25T12:51:29.449Z,1005.52
2022-08-25T12:52:29.479Z,1005.48
2022-08-25T12:53:29.421Z,1005.56
2022-08-25T12:54:29.459Z,1005.50
2022-08-25T12:55:29.410Z,1005.50
2022-08-25T12:56:29.415Z,1005.46
2022-08-25T12:57:30.061Z,1005.51
2022-08-25T12:58:43.765Z,1005.51
2022-08-25T12:59:29.406Z,1005.55
2022-08-25T13:00:29.387Z,1005.52
2022-08-25T13:01:35.597Z,1005.43
2022-08-25T13:02:29.525Z,1005.39
2022-08-25T13:03:29.489Z,1005.43
2022-08-25T13:04:29.363Z,1005.35
2022-08-25T13:05:29.412Z,1005.35
2022-08-25T13:06:29.341Z,1005.33
2022-08-25T13:07:29.565Z,1005.35
2022-08-25T13:08:33.656Z,1005.33
2022-08-25T13:09:30.530Z,1005.30
2022-08-25T13:10:29.308Z,1005.26
2022-08-25T13:11:29.327Z,1005.22
2022-08-25T13:12:29.294Z,1005.20
2022-08-25T13:13:29.299Z,1005.21
2022-08-25T13:14:29.336Z,1005.10
2022-08-25T13:15:29.291Z,1005.17
2022-08-25T13:16:29.991Z,1005.21
2022-08-25T13:17:29.274Z,1005.20
2022-08-25T13:18:35.798Z,1005.16
2022-08-25T13:19:34.739Z,1005.15
2022-08-25T13:20:29.319Z,1005.19
2022-08-25T13:21:29.265Z,1005.18
2022-08-25T13:22:29.235Z,1005.13
2022-08-25T13:23:29.390Z,1005.11
2022-08-25T13:24:29.260Z,1005.10
2022-08-25T13:25:30.127Z,1005.12
2022-08-25T13:26:29.201Z,1005.09
2022-08-25T13:27:29.214Z,1005.05
2022-08-25T13:28:29.210Z,1005.04
2022-08-25T13:29:29.196Z,1005.07
2022-08-25T13:30:29.189Z,1005.08
2022-08-25T13:31:31.661Z,1005.10
2022-08-25T13:32:31.977Z,1004.95
2022-08-25T13:33:29.244Z,1004.92
2022-08-25T13:34:34.370Z,1004.93
2022-08-25T13:35:32.531Z,1004.91
2022-08-25T13:36:29.155Z,1004.93
2022-08-25T13:37:29.773Z,1004.92
2022-08-25T13:38:29.135Z,1004.91
2022-08-25T13:39:52.734Z,1004.92
2022-08-25T13:40:29.261Z,1004.93
2022-08-25T13:41:29.960Z,1004.96
2022-08-25T13:42:29.459Z,1005.00
2022-08-25T13:43:29.083Z,1004.93
2022-08-25T13:44:29.108Z,1004.92
2022-08-25T13:45:31.764Z,1004.93
2022-08-25T13:46:29.139Z,1004.96
2022-08-25T13:47:29.065Z,1004.87
2022-08-25T13:48:29.063Z,1004.86
2022-08-25T13:49:29.070Z,1004.81
2022-08-25T13:50:29.050Z,1004.80
2022-08-25T13:51:31.458Z,1004.78
2022-08-25T13:52:29.138Z,1004.77
2022-08-25T13:53:30.681Z,1004.79
2022-08-25T13:54:29.028Z,1004.72
2022-08-25T13:55:29.022Z,1004.76
2022-08-25T13:56:32.856Z,1004.76
2022-08-25T13:57:30.435Z,1004.71
2022-08-25T13:58:38.658Z,1004.68
2022-08-25T13:59:29.005Z,1004.69
2022-08-25T14:00:31.769Z,1004.70
2022-08-25T14:01:48.355Z,1004.69
2022-08-25T14:02:29.072Z,1004.69
2022-08-25T14:03:30.099Z,1004.70
2022-08-25T14:04:28.965Z,1004.79
2022-08-25T14:05:28.939Z,1004.79
2022-08-25T14:06:28.949Z,1004.78
2022-08-25T14:07:34.289Z,1004.75
